Airfield :
LOGIN :

Register | Disclaimer

   EN    FR    IT 

 










Legend :    VFR   Marginal VFR   IFR   Intensive IFR   Very Intensive IFR
Visi :
Ceiling :
>= 8 km
>= 3000ft
5 to 8 km
1000 to 3000 ft
1500m to 5 km
500 to 1000 ft
800 to 1500m
200 to 500 ft
< 800m
< 200 ft
Symbols :   Thunderstorms  Fog  Heavy snow  Heavy precipitations  Wind > 20 kt
SIGMETs :     Misc.  Thunderstorms  Icing  Turbulence  Mountain Waves  Volcanic Ashes






- Airport Elevation : 289 ft
- IATA code : ZAD


LDZD - Zadar

CURRENT METAR :
  • 220300Z VRB03KT CAVOK M03/M07 Q1025

EXPIRED METARs :
  • 220230Z VRB01KT CAVOK M03/M07 Q1026
  • 220200Z VRB02KT CAVOK M05/M08 Q1026
  • 220130Z 00000KT CAVOK M05/M08 Q1026
  • 220100Z VRB01KT CAVOK M05/M08 Q1026
  • 220030Z 00000KT CAVOK M04/M08 Q1026
  • 220000Z 26003KT 230V300 CAVOK M03/M09 Q1026

TAF TAF LDZD
Valid from the 22 at 00:00 until the 23 at 00:00 UTC


212325Z 2200/2300 09005KT CAVOK TX08/2212Z TNM04/2205Z
BECMG 2208/2210 32012KT
BECMG 2216/2218 03009KT
BECMG 2221/2223 03005KT



MET'MAP, your aeronautical weather chart ! - Copyright ORBIFLY December 2007 - Disclaimer

ORBIFLY MET'MAP TEAM :

Programming & Development : Alexandra Zaïnal
Concept & original design : Baudouin d'Aumeries
Assistance for programming : Marc-Olivier Méhu
Technical & hardware support : Manuel Goepfert

Contact : metmap@orbifly.com




SOURCES & CREDITS :

   NOAA